STATIONS

Date Time Temperature Humidity WindSpeed WindDirection Rainfall PM1 (µg/m3) PM2.5 (µg/m3) PM4 (µg/m3) PM10 (µg/m3) Total
2019-05-20 00:00:28 36.575 54.47 0 0.1 0 18 18 20 25 25
2019-05-20 00:01:28 36.565 54.44 0 0.1 0 16 17 18 22 22
2019-05-20 00:02:28 36.55 54.45 0 0.1 0 17 18 20 25 25
2019-05-20 00:03:28 36.54 54.45 0 0.1 0 18 18 20 25 25
2019-05-20 00:04:29 36.515 54.45 0 0.1 0 18 19 20 28 29
2019-05-20 00:05:29 36.525 54.45 0 0.1 0 19 20 21 25 32
2019-05-20 00:06:30 36.515 54.4 0 0.1 0 19 19 21 27 35
2019-05-20 00:07:30 36.515 54.39 0 0.1 0 18 19 20 26 26
2019-05-20 00:08:31 36.495 54.31 0 0.1 0 17 18 20 25 25
2019-05-20 00:09:31 36.515 54.43 0 0.1 0 18 19 21 25 25
2019-05-20 00:10:32 36.525 54.31 0 0.1 0 17 17 19 23 23
2019-05-20 00:11:32 36.515 54.39 0 0.1 0 17 18 19 24 29
2019-05-20 00:12:33 36.5 54.4 0 0.1 0 17 18 19 23 23
2019-05-20 00:13:33 36.505 54.29 0 0.1 0 17 17 19 24 24
2019-05-20 00:14:34 36.52 54.45 0 0.1 0 17 18 19 23 23
2019-05-20 00:15:34 36.505 54.45 0 0.1 0 17 18 19 26 32
2019-05-20 00:16:35 36.525 54.45 0 0.1 0 18 19 20 25 25
2019-05-20 00:17:35 36.53 54.42 0 0.1 0 18 19 21 27 27
2019-05-20 00:18:36 36.53 54.44 0 0.1 0 18 18 20 24 24
2019-05-20 00:19:37 36.525 54.57 0 0.1 0 18 18 20 24 24
2019-05-20 00:20:37 36.515 54.57 0 0.1 0 18 19 20 24 24
2019-05-20 00:21:37 36.515 54.53 0 0.1 0 21 21 23 29 58
2019-05-20 00:22:37 36.505 54.65 0 0.1 0 17 18 19 28 28
2019-05-20 00:23:38 36.505 54.66 0 0.1 0 18 19 20 25 25
2019-05-20 00:24:39 36.495 54.79 0 0.1 0 19 20 22 32 32
2019-05-20 00:25:39 36.48 54.81 0 0.2 0 17 18 20 24 24
2019-05-20 00:26:39 36.485 54.79 0 0.1 0 17 18 20 26 26
2019-05-20 00:27:40 36.485 54.79 0 0.1 0 16 17 18 23 23
2019-05-20 00:28:40 36.48 54.94 0 0.1 0 17 18 19 25 51
2019-05-20 00:29:41 36.46 54.89 0 0.1 0 21 22 23 28 29
2019-05-20 00:30:41 36.465 55.02 0 0.1 0 18 19 20 35 35
2019-05-20 00:31:42 36.465 55.03 0 0.1 0 17 18 19 25 25
2019-05-20 00:32:42 36.475 55.06 0 0.1 0 19 19 21 25 25
2019-05-20 00:33:43 36.495 54.94 0 0.1 0 18 19 20 27 27
2019-05-20 00:34:43 36.505 54.91 0 0.1 0 19 20 21 26 33
2019-05-20 00:35:44 36.5 54.89 0 0.1 0 17 18 19 26 26
2019-05-20 00:36:44 36.5 54.93 0 0.1 0 19 20 22 29 29
2019-05-20 00:37:45 36.505 55.03 0 0.1 0 18 19 20 28 30
2019-05-20 00:38:45 36.505 54.94 0 0.1 0 18 19 20 25 25
2019-05-20 00:39:46 36.52 55.05 0 0.1 0 18 18 19 24 30
2019-05-20 00:40:46 36.495 55.02 0 0.1 0 18 19 20 26 26
2019-05-20 00:41:46 36.495 54.94 0 0.1 0 18 18 20 26 26
2019-05-20 00:45:30 36.48 55.02 0 0.1 0 18 19 21 30 30
2019-05-20 00:46:30 36.46 55.17 0 0.1 0 18 18 19 23 25
2019-05-20 00:47:31 36.435 55.17 0 0.1 0 19 19 21 26 26
2019-05-20 00:48:31 36.41 55.06 0 0.1 0 19 19 21 29 29
2019-05-20 00:49:32 36.42 55.15 0 0.1 0 19 20 21 30 30
2019-05-20 00:50:33 36.425 55.16 0 0.1 0 20 21 23 33 33
2019-05-20 00:51:33 36.42 55.19 0 0.1 0 21 21 23 30 30
2019-05-20 00:52:34 36.405 55.21 0 0.1 0 19 20 23 27 27
2019-05-20 00:53:34 36.405 55.2 0 0.1 0 19 20 21 29 35
2019-05-20 00:54:34 36.425 55.16 0 0.1 0 22 23 24 33 36
2019-05-20 00:55:35 36.435 55.16 0 0.1 0 19 20 20 29 29
2019-05-20 00:56:35 36.425 55.14 0 0.1 0 19 20 21 28 28
2019-05-20 00:57:35 36.425 55.19 0 0.1 0 21 22 23 33 33
2019-05-20 00:58:36 36.435 55.21 0 0.1 0 18 19 20 25 25
2019-05-20 00:59:37 36.415 55.32 0 0.1 0 17 18 20 24 24
2019-05-20 01:00:37 36.385 55.4 0 0.1 0 19 20 20 29 29
2019-05-20 01:01:38 36.385 55.4 0 0.1 0 20 21 23 32 32
2019-05-20 01:02:40 36.39 55.4 0 0.1 0 18 19 20 25 25
2019-05-20 01:03:38 36.38 55.39 0 0.1 0 19 19 21 30 30
2019-05-20 01:04:39 36.385 55.52 0 0.1 0 20 21 21 26 26
2019-05-20 01:05:40 36.375 55.4 0 0.1 0 19 19 20 27 27
2019-05-20 01:06:40 36.355 55.52 0 0.1 0 27 28 29 35 37
2019-05-20 01:07:41 36.37 55.52 0 0.1 0 19 20 22 27 27
2019-05-20 01:08:41 36.365 55.51 0 0.1 0 20 20 22 34 34
2019-05-20 01:09:42 36.355 55.51 0 0.1 0 20 21 23 29 29
2019-05-20 01:10:42 36.36 55.52 0 0.1 0 19 20 21 29 29
2019-05-20 01:11:42 36.355 55.54 0 0.1 0 19 20 21 28 28
2019-05-20 01:12:43 36.375 55.6 0 0.1 0 20 20 23 26 26
2019-05-20 01:13:43 36.365 55.64 0 0.1 0 17 18 18 22 22
2019-05-20 01:14:44 36.375 55.64 0 0.1 0 19 20 22 29 29
2019-05-20 01:15:45 36.395 55.53 0 0.1 0 20 21 22 29 29
2019-05-20 01:16:46 36.38 55.58 0 0.1 0 21 22 23 30 30
2019-05-20 01:17:45 36.375 55.63 0 0.1 0 18 19 21 28 28
2019-05-20 01:18:45 36.39 55.55 0 0.1 0 19 20 22 27 27
2019-05-20 01:19:46 36.415 55.56 0 0.1 0 19 20 21 27 27
2019-05-20 01:20:47 36.415 55.57 0 0.1 0 19 20 22 28 51
2019-05-20 01:21:47 36.395 55.58 0 0.1 0 18 19 20 27 27
2019-05-20 01:22:48 36.405 55.64 0 0.2 0 20 21 22 27 27
2019-05-20 01:23:48 36.42 55.67 0 0.1 0 18 19 20 24 24
2019-05-20 01:24:48 36.425 55.63 0 0.1 0 19 19 21 26 26
2019-05-20 01:25:48 36.425 55.63 0 0.1 0 20 21 23 30 30
2019-05-20 01:26:51 36.41 55.66 0 0.1 0 20 21 22 28 28
2019-05-20 01:27:50 36.425 55.63 0 0.1 0 19 20 22 27 27
2019-05-20 01:28:50 36.435 55.68 0 0.1 0 20 21 23 32 32
2019-05-20 01:29:51 36.42 55.67 0 0.1 0 19 20 22 25 25
2019-05-20 01:30:51 36.435 55.64 0 0.1 0 18 18 19 23 23
2019-05-20 01:31:52 36.415 55.74 0 0.1 0 20 20 21 29 29
2019-05-20 01:32:52 36.4 55.87 0 0.1 0 19 20 22 27 28
2019-05-20 01:33:53 36.385 55.8 0 0.1 0 18 19 20 25 38
2019-05-20 01:34:53 36.395 55.76 0 0.1 0 18 19 21 25 28
2019-05-20 01:35:54 36.405 55.68 0 0.1 0 19 20 22 28 28
2019-05-20 01:36:54 36.38 55.88 0 0.1 0 20 21 22 33 33
2019-05-20 01:37:56 36.38 55.88 0 0.1 0 20 21 23 29 39
2019-05-20 01:38:55 36.375 55.88 0 0.1 0 19 20 22 29 34
2019-05-20 01:39:56 36.375 55.87 0 0.1 0 19 20 22 26 26
2019-05-20 01:40:56 36.375 55.93 0 0.1 0 19 20 22 24 24
2019-05-20 01:41:57 36.385 55.87 0 0.1 0 20 21 23 30 30
2019-05-20 01:42:57 36.37 56 0 0.1 0 21 21 23 29 29
2019-05-20 01:43:57 36.365 56 0 0.1 0 19 19 21 31 31
2019-05-20 01:44:58 36.365 55.99 0 0.1 0 20 21 23 29 29
2019-05-20 01:45:59 36.36 55.99 0 0.1 0 19 20 21 27 29
2019-05-20 01:46:59 36.37 56.04 0 0.1 0 18 19 20 26 26
2019-05-20 01:48:00 36.36 55.99 0 0.1 0 20 21 23 30 30
2019-05-20 01:49:00 36.36 56.04 0 0.1 0 20 21 23 29 29
2019-05-20 01:50:00 36.36 56.11 0 0.1 0 19 20 22 29 29
2019-05-20 01:51:01 36.355 55.98 0 0.2 0 20 20 23 29 29
2019-05-20 01:52:01 36.355 55.98 0 0.1 0 19 20 22 28 28
2019-05-20 01:53:01 36.335 56.1 0 0.1 0 19 20 21 26 26
2019-05-20 01:54:02 36.34 56.11 0 0.1 0 20 20 21 29 29
2019-05-20 01:55:03 36.36 56.11 0 0.1 0 19 20 21 28 30
2019-05-20 01:56:03 36.355 56.15 0 0.1 0 20 21 23 32 32
2019-05-20 01:57:05 36.355 56.29 0 0.1 0 20 21 23 31 31
2019-05-20 01:58:04 36.36 56.11 0 0.1 0 21 22 23 32 32
2019-05-20 01:59:06 36.365 56.14 0 0.1 0 20 20 21 27 27
2019-05-20 02:00:05 36.345 56.24 0 0.1 0 20 21 23 33 33
2019-05-20 02:01:07 36.335 56.36 0 0.1 0 19 20 22 26 32
2019-05-20 02:02:06 36.335 56.35 0 0.1 0 22 22 24 36 42
2019-05-20 02:03:06 36.33 56.34 0 0.1 0 20 21 23 31 32
2019-05-20 02:04:07 36.32 56.36 0 0.1 0 21 22 23 32 32
2019-05-20 02:05:07 36.32 56.51 0 0.1 0 22 23 26 33 35
2019-05-20 02:06:08 36.335 56.42 0 0.1 0 21 22 23 29 29
2019-05-20 02:07:09 36.34 56.44 0 0.1 0 20 21 23 27 35
2019-05-20 02:08:09 36.36 56.49 0 0.1 0 20 21 22 26 26
2019-05-20 02:09:09 36.37 56.44 0 0.1 0 21 22 23 29 29
2019-05-20 02:10:10 36.39 56.48 0 0.1 0 20 21 22 29 29
2019-05-20 02:11:10 36.39 56.48 0 0.1 0 20 20 23 28 28
2019-05-20 02:12:11 36.415 56.4 0 0.1 0 19 20 21 26 26
2019-05-20 02:13:11 36.405 56.6 0 0.1 0 19 20 21 28 28
2019-05-20 02:14:12 36.405 56.54 0 0.1 0 19 20 22 27 27
2019-05-20 02:15:12 36.425 56.49 0 0.1 0 20 21 23 29 29
2019-05-20 02:16:12 36.415 56.46 0 0.1 0 20 20 22 27 30
2019-05-20 02:17:13 36.415 56.62 0 0.1 0 20 21 22 28 29
2019-05-20 02:18:14 36.395 56.61 0 0.1 0 19 20 22 29 29
2019-05-20 02:19:14 36.395 56.73 0 0.1 0 19 20 22 27 27
2019-05-20 02:20:15 36.385 56.74 0 0.1 0 21 22 23 32 32
2019-05-20 02:21:15 36.385 56.74 0 0.1 0 21 21 23 32 32
2019-05-20 02:22:16 36.365 56.88 0 0.1 0 20 21 23 27 27
2019-05-20 02:23:18 36.35 56.84 0 0.1 0 21 22 24 31 31
2019-05-20 02:24:16 36.345 56.89 0 0.1 0 20 20 22 28 28
2019-05-20 02:25:17 36.315 57 0 0.1 0 19 20 20 26 27
2019-05-20 02:26:17 36.315 57.05 0 0.1 0 20 21 23 29 29
2019-05-20 02:27:18 36.325 57.01 0 0.1 0 21 22 24 34 34
2019-05-20 02:28:19 36.335 57.06 0 0.1 0 19 20 22 27 27
2019-05-20 02:29:19 36.33 56.99 0 0.1 0 20 20 22 32 32
2019-05-20 02:30:19 36.345 57.05 0 0.1 0 19 20 21 26 26
2019-05-20 02:31:20 36.325 57.04 0 0.1 0 21 22 23 34 34
2019-05-20 02:32:20 36.315 57.11 0 0.1 0 21 22 24 29 29
2019-05-20 02:33:21 36.29 57.15 0 0.1 0 21 22 24 28 28
2019-05-20 02:34:23 36.305 57.1 0 0.1 0 19 20 21 25 25
2019-05-20 02:35:21 36.325 57.15 0 0.1 0 20 21 23 28 28
2019-05-20 02:36:22 36.325 57.15 0 0.1 0 21 22 23 31 31
2019-05-20 02:37:22 36.305 57.15 0 0.1 0 20 21 22 33 33
2019-05-20 02:38:23 36.32 57.17 0 0.1 0 20 21 23 28 28
2019-05-20 02:39:23 36.31 57.14 0 0.1 0 20 21 24 37 37
2019-05-20 02:40:24 36.315 57.24 0 0.1 0 20 21 22 28 28
2019-05-20 02:41:24 36.31 57.28 0 0.1 0 20 21 22 28 28
2019-05-20 02:42:25 36.305 57.24 0 0.2 0 20 21 22 29 29
2019-05-20 02:43:25 36.305 57.27 0 0.1 0 20 21 23 26 26
2019-05-20 02:44:26 36.285 57.34 0 0.1 0 21 22 23 28 28
2019-05-20 02:45:26 36.29 57.38 0 0.1 0 20 21 23 28 28
2019-05-20 02:46:27 36.29 57.41 0 0.1 0 21 22 23 29 36
2019-05-20 02:47:27 36.255 57.5 0 0.1 0 21 21 23 27 33
2019-05-20 02:48:28 36.215 57.5 0 0.1 0 25 25 27 38 39
2019-05-20 02:49:28 36.205 57.66 0 0.1 0 22 22 24 33 33
2019-05-20 02:50:29 36.205 57.73 0 0.1 0 19 20 21 24 24
2019-05-20 02:51:29 36.205 57.72 0 0.1 0 20 21 22 28 28
2019-05-20 02:52:30 36.195 57.7 0 0.1 0 22 22 24 28 28
2019-05-20 02:53:30 36.21 57.62 0 0.1 0 21 22 23 30 30
2019-05-20 02:54:31 36.215 57.72 0 0.1 0 20 21 22 27 27
2019-05-20 02:55:31 36.205 57.62 0 0.1 0 21 22 23 28 37
2019-05-20 02:56:32 36.235 57.65 0 0.1 0 21 22 23 27 27
2019-05-20 02:57:32 36.225 57.64 0 0.1 0 21 21 23 29 29
2019-05-20 02:58:33 36.235 57.63 0 0.1 0 20 21 23 30 30
2019-05-20 02:59:33 36.235 57.63 0 0.1 0 22 22 24 30 30
2019-05-20 03:00:34 36.225 57.71 0 0.1 0 21 22 24 32 41
2019-05-20 03:01:36 36.225 57.72 0 0.1 0 21 21 23 30 30
2019-05-20 03:02:34 36.21 57.7 0 0.1 0 22 23 24 31 31
2019-05-20 03:03:35 36.225 57.75 0 0.2 0 21 22 24 35 35
2019-05-20 03:04:35 36.235 57.72 0 0.1 0 20 21 22 27 27
2019-05-20 03:05:36 36.245 57.71 0 0.1 0 20 20 22 30 30
2019-05-20 03:06:36 36.235 57.75 0 0.1 0 20 21 23 28 29
2019-05-20 03:07:37 36.225 57.88 0 0.1 0 21 22 24 29 32
2019-05-20 03:08:37 36.215 57.75 0 0.1 0 21 22 24 30 30
2019-05-20 03:09:37 36.215 57.74 0 0.1 0 23 23 25 31 31
2019-05-20 03:10:38 36.225 57.75 0 0.1 0 22 23 25 30 30
2019-05-20 03:11:39 36.235 57.75 0 0.1 0 20 21 23 30 30
2019-05-20 03:12:39 36.215 57.84 0 0.1 0 21 22 23 28 28
2019-05-20 03:13:39 36.205 57.88 0 0.1 0 22 23 24 31 31
2019-05-20 03:14:40 36.205 57.88 0 0.1 0 23 24 25 34 34
2019-05-20 03:15:40 36.215 57.88 0 0.1 0 21 22 24 30 30
2019-05-20 03:16:41 36.225 57.87 0 0.1 0 21 21 23 28 28
2019-05-20 03:17:41 36.245 57.84 0 0.1 0 20 21 23 28 28
2019-05-20 03:18:41 36.255 57.75 0 0.1 0 21 21 23 29 29
2019-05-20 03:19:42 36.265 57.88 0 0.1 0 21 22 24 28 31
2019-05-20 03:20:42 36.275 57.75 0 0.1 0 20 21 23 27 31
2019-05-20 03:21:45 36.275 57.83 0 0.1 0 21 22 23 29 33
2019-05-20 03:22:45 36.255 57.88 0 0.1 0 20 21 23 31 31
2019-05-20 03:23:44 36.26 57.87 0 0.1 0 21 22 24 32 41